Aeroporto :
LOGIN :

Iscrizione | Disclaimer

   EN    FR    IT 

 










Sommario :    VFR   VFR Marginale   IFR   IFR Intensivo   IFR Molto Intensivo
Visibilità : 
Base nubi : 
>= 8 km
>= 3000ft
5 / 8 km
1000 / 3000 ft
1500m / 5 km
500 / 1000 ft
800 / 1500m
200 / 500 ft
< 800m
< 200 ft
Simboli :   Temporali  Nebbia  Neve Forte  Precipitazioni Forti  Vento > 20 kt
SIGMETs :   Varie  Temporali  Ghiacco  Turbolenza  Onda orograficha  Ceneri Vulcaniche






- Altitudine del aeroporto : 288 ft
- Codice IATA : BZZ


EGVN - RAF Brize Norton

ULTIMO METAR :
  • 072320Z 12002KT CAVOK 12/05 Q1027 NOSIG

METARs OBSOLETI :
  • 072250Z 07002KT CAVOK 11/05 Q1027 NOSIG RMK BLU BLU
  • 072220Z 22002KT CAVOK 12/04 Q1027 NOSIG RMK BLU BLU
  • 072150Z 22002KT CAVOK 13/05 Q1026 NOSIG RMK BLU BLU
  • 072120Z 22003KT CAVOK 13/05 Q1027 NOSIG
  • 072050Z 30001KT CAVOK 13/04 Q1026 NOSIG RMK BLU BLU

TAF TAF EGVN
Valido dal 08 a 00 ore il 09 a 00 ore UTC


072225Z 0800/0824 VRB04KT 9999 FEW040
PROB30 0804/0808 7000 HZ



MetMap, La meteo Aeronautica in un colpo d'occhio ! - Copyright ORBIFLY Dicembre 2007 - Disclaimer

ORBIFLY MET'MAP TEAM :

Programmazione e sviluppo : Alexandra Zaïnal
Concezione : Baudouin d'Aumeries
Aiuto per la programmazione : Marc-Olivier Méhu
Supporto tecnico e logistico : Manuel Goepfert
Aiuto per la traduzione : Arnaldo La Scala

Contatto : metmap@orbifly.com




FONTI E CREDITI :

   NOAA